Anelo, Argentina
Current Conditions -  °F | °C
As of 9:00 AM on Thursday 23 Oct 2014 (Local Time) from SAZN Reporting Station
Clear Clear  
Wind Chill: 16°   Ceiling: Unl
Heat Index: 16°   Visibility: 6mi
Dew Point:   Wind: 2mph
Humidity: 55%   Direction: 250°WSW
Pressure: 30.06"   Gusts: NA
Location:  38.12°S, 68.65°W
Report Text: SAZN 231200Z 25002KT CAVOK 16/07 Q1018
Loading
Personal Weather Stations






























Interactive Weather Map
Tropical Storm Tracking
New forecast layout! Learn more

10-Day Weather Forecast

Advertisements
Track Severe Weather on mobile